Joao Dourado, Brazil
Current Conditions -  °F | °C
As of 7:00 PM on Sunday 23 Nov 2014 (Local Time) from SBPL Reporting Station
Few Clouds Few Clouds  
Wind Chill: 86°   Ceiling: Unl
Heat Index: 89°   Visibility: 6mi
Dew Point: 68°   Wind: 3mph
Humidity: 55%   Direction: 160°SSE
Pressure: 29.88"   Gusts: NA
Location:  11.35°S, 41.66°W
Report Text: SBPL 232200Z 16003KT 9999 FEW020 30/20 Q1012
Loading
Personal Weather Stations






























Interactive Weather Map New forecast layout! Learn more

10-Day Weather Forecast

Advertisements
Track Severe Weather on mobile